Time;durP1;ratioP1;P1;durP2;ratioP2;P2;SDS_P1;SDS_P2;PMS_P1;PMS_P2;Temp;Humidity;BMP_temperature;BMP_pressure;BME280_temperature;BME280_humidity;BME280_pressure;Samples;Min_cycle;Max_cycle;Signal;HPM_P1;HPM_P2
2023/03/17 00:01:43;;;;;;;;;9.75;7.75;;;;;22.36;32.90;100034.50;5089288;27;59368;-71
2023/03/17 00:04:10;;;;;;;;;12.25;9.00;;;;;22.37;32.65;100039.69;5092089;27;45409;-70
2023/03/17 00:06:36;;;;;;;;;8.00;7.00;;;;;22.38;32.99;100037.84;5090116;27;45459;-70
2023/03/17 00:09:01;;;;;;;;;7.75;7.25;;;;;22.37;33.07;100044.19;5096149;27;45453;-71
2023/03/17 00:11:27;;;;;;;;;9.75;6.25;;;;;22.39;33.25;100042.22;5096502;27;69388;-71
2023/03/17 00:13:52;;;;;;;;;6.25;5.75;;;;;22.37;32.87;100038.84;5089455;27;45709;-71
2023/03/17 00:16:20;;;;;;;;;12.75;9.25;;;;;22.39;32.77;100042.22;5093475;27;74886;-71
2023/03/17 00:18:47;;;;;;;;;11.00;7.50;;;;;22.36;33.00;100051.34;5090838;27;46173;-71
2023/03/17 00:21:13;;;;;;;;;12.50;8.00;;;;;22.40;32.61;100056.38;5091856;27;45434;-71
2023/03/17 00:23:40;;;;;;;;;9.75;7.00;;;;;22.36;33.01;100051.34;5096133;27;45344;-71
2023/03/17 00:26:05;;;;;;;;;11.75;9.25;;;;;22.39;32.64;100055.56;5091429;27;45457;-71
2023/03/17 00:28:31;;;;;;;;;11.75;8.00;;;;;22.39;32.88;100054.72;5077697;27;46034;-71
2023/03/17 00:30:59;;;;;;;;;9.75;9.75;;;;;22.37;32.97;100047.69;5087359;27;45300;-70
2023/03/17 00:33:26;;;;;;;;;15.00;9.00;;;;;22.36;32.72;100045.16;5090872;27;45578;-71
2023/03/17 00:35:53;;;;;;;;;8.75;7.25;;;;;22.40;32.57;100041.25;5079600;27;48939;-70
2023/03/17 00:38:20;;;;;;;;;8.00;8.00;;;;;22.31;32.65;100040.25;5100665;27;45782;-71
2023/03/17 00:40:46;;;;;;;;;6.50;6.00;;;;;22.39;32.88;100057.38;5098977;27;45503;-70
2023/03/17 00:43:12;;;;;;;;;8.00;8.00;;;;;22.40;32.56;100053.72;5096589;27;45362;-71
2023/03/17 00:45:38;;;;;;;;;11.75;7.75;;;;;22.40;32.51;100054.59;5100593;27;48037;-70
2023/03/17 00:48:16;;;;;;;;;11.50;9.00;;;;;22.39;32.52;100054.72;5111304;27;45965;-71
2023/03/17 00:50:42;;;;;;;;;9.00;7.75;;;;;22.39;32.53;100058.22;5088905;27;45324;-71
2023/03/17 00:53:12;;;;;;;;;9.50;6.00;;;;;22.39;32.57;100057.38;5098315;27;45240;-71
2023/03/17 00:55:38;;;;;;;;;7.50;7.50;;;;;22.37;32.71;100052.19;5072675;27;46387;-71
2023/03/17 00:58:16;;;;;;;;;6.00;6.00;;;;;22.40;32.91;100048.38;5077536;27;45289;-70
2023/03/17 01:00:41;;;;;;;;;10.00;9.00;;;;;22.39;32.72;100049.38;5086952;27;45409;-71
2023/03/17 01:03:10;;;;;;;;;9.25;8.00;;;;;22.39;32.38;100044.06;5111251;27;45279;-71
2023/03/17 01:05:36;;;;;;;;;9.00;7.75;;;;;22.33;32.39;100038.28;5108305;27;45480;-71
2023/03/17 01:08:02;;;;;;;;;8.00;7.50;;;;;22.34;32.79;100042.63;5078569;27;45937;-71
2023/03/17 01:10:28;;;;;;;;;9.00;8.00;;;;;22.35;32.32;100049.66;5090214;27;45443;-71
2023/03/17 01:12:58;;;;;;;;;9.75;8.75;;;;;22.36;32.64;100053.16;5095866;27;45432;-70
2023/03/17 01:15:26;;;;;;;;;9.25;6.75;;;;;22.37;32.43;100054.84;5094497;27;46242;-71
2023/03/17 01:17:51;;;;;;;;;8.50;8.00;;;;;22.37;32.36;100046.84;5097279;27;45953;-71
2023/03/17 01:20:23;;;;;;;;;9.75;7.00;;;;;22.35;32.71;100052.31;5103792;27;64386;-71
2023/03/17 01:22:49;;;;;;;;;8.75;6.75;;;;;22.36;32.72;100061.16;5086778;27;45586;-71
2023/03/17 01:25:15;;;;;;;;;7.00;7.00;;;;;22.36;32.51;100062.00;5083256;27;48107;-71
2023/03/17 01:27:41;;;;;;;;;6.25;5.50;;;;;22.33;32.29;100056.09;5104336;27;45488;-71
2023/03/17 01:30:13;;;;;;;;;9.00;8.00;;;;;22.34;32.73;100053.28;5093715;27;45343;-71
2023/03/17 01:32:38;;;;;;;;;9.00;7.00;;;;;22.36;32.53;100058.47;5076120;27;45489;-71
2023/03/17 01:35:05;;;;;;;;;8.00;6.00;;;;;22.34;32.19;100047.13;5110564;27;74187;-71
2023/03/17 01:37:31;;;;;;;;;8.50;8.50;;;;;22.35;32.12;100051.47;5110907;27;45980;-71
2023/03/17 01:39:56;;;;;;;;;9.25;7.75;;;;;22.30;32.77;100043.88;5083553;27;45680;-71
2023/03/17 01:42:21;;;;;;;;;8.75;6.00;;;;;22.31;32.24;100048.25;5102031;27;68968;-71
2023/03/17 01:45:04;;;;;;;;;8.00;7.00;;;;;22.34;32.23;100045.28;5103767;27;64090;-70
2023/03/17 01:47:30;;;;;;;;;8.50;7.00;;;;;22.34;32.14;100039.13;5085938;27;45450;-71
2023/03/17 01:49:59;;;;;;;;;9.25;7.25;;;;;22.33;32.30;100043.63;5097910;27;45347;-70
2023/03/17 01:52:26;;;;;;;;;6.25;5.50;;;;;22.32;32.37;100043.75;5092532;27;45387;-71
2023/03/17 01:55:02;;;;;;;;;8.75;7.00;;;;;22.33;32.34;100034.78;5094147;27;47594;-71
2023/03/17 01:57:33;;;;;;;;;7.25;7.00;;;;;22.29;32.51;100034.22;5091786;27;45314;-71
2023/03/17 02:00:04;;;;;;;;;8.00;7.75;;;;;22.31;32.66;100034.91;5082236;27;45448;-71
2023/03/17 02:02:33;;;;;;;;;8.75;7.00;;;;;22.30;32.42;100030.53;5099245;27;45815;-70
2023/03/17 02:04:59;;;;;;;;;7.75;6.75;;;;;22.29;32.17;100033.34;5094976;27;45263;-71
2023/03/17 02:07:26;;;;;;;;;7.00;7.00;;;;;22.31;32.09;100037.56;5095072;27;46372;-71
2023/03/17 02:09:52;;;;;;;;;7.50;7.50;;;;;22.31;32.53;100034.91;5094888;27;45325;-71
2023/03/17 02:12:21;;;;;;;;;6.25;6.25;;;;;22.30;32.48;100029.72;5079937;27;45476;-71
2023/03/17 02:14:46;;;;;;;;;7.75;5.50;;;;;22.31;32.47;100036.72;5068883;27;47897;-71
2023/03/17 02:17:11;;;;;;;;;7.75;7.00;;;;;22.28;32.15;100034.34;5109198;27;72075;-71
2023/03/17 02:19:37;;;;;;;;;9.50;7.25;;;;;22.28;32.02;100039.66;5098155;27;45449;-71
2023/03/17 02:22:03;;;;;;;;;10.25;7.25;;;;;22.29;32.15;100034.22;5079800;27;45730;-71
2023/03/17 02:24:52;;;;;;;;;9.00;6.50;;;;;22.29;32.39;100039.53;5084593;27;47154;-71
2023/03/17 02:27:18;;;;;;;;;7.50;6.00;;;;;22.30;32.01;100037.72;5068306;27;45275;-71
2023/03/17 02:29:45;;;;;;;;;6.00;6.00;;;;;22.29;32.01;100036.00;5088931;27;45651;-70
2023/03/17 02:32:14;;;;;;;;;11.50;6.50;;;;;22.29;32.16;100039.53;5088378;27;45442;-72
2023/03/17 02:34:40;;;;;;;;;9.00;7.75;;;;;22.29;32.37;100033.34;5080447;27;48496;-71
2023/03/17 02:37:06;;;;;;;;;7.50;7.50;;;;;22.28;32.03;100029.84;5072052;27;45190;-70
2023/03/17 02:39:32;;;;;;;;;8.75;7.00;;;;;22.29;31.86;100022.69;5083241;27;45634;-71
2023/03/17 02:41:57;;;;;;;;;6.75;5.75;;;;;22.29;32.30;100017.34;5086199;27;45558;-71
2023/03/17 02:44:23;;;;;;;;;7.75;7.00;;;;;22.29;32.14;100025.34;5097863;27;46189;-71
2023/03/17 02:46:49;;;;;;;;;6.25;6.00;;;;;22.27;32.38;100025.47;5072082;27;45495;-71
2023/03/17 02:49:15;;;;;;;;;7.75;6.50;;;;;22.28;32.52;100023.66;5092181;27;53072;-70
2023/03/17 02:51:40;;;;;;;;;8.25;8.00;;;;;22.28;32.48;100027.16;5086636;27;45391;-70
2023/03/17 02:54:06;;;;;;;;;9.00;7.75;;;;;22.26;32.39;100028.28;5096440;27;45532;-71
2023/03/17 02:56:31;;;;;;;;;7.50;6.50;;;;;22.25;31.92;100024.75;5093601;27;45512;-69
2023/03/17 02:58:56;;;;;;;;;6.50;6.50;;;;;22.27;32.03;100012.16;5113775;27;45442;-70
2023/03/17 03:01:22;;;;;;;;;9.50;6.75;;;;;22.25;32.01;100016.75;5092934;27;71210;-71
2023/03/17 03:03:47;;;;;;;;;9.75;6.75;;;;;22.24;32.05;100004.41;5091180;27;45473;-72
2023/03/17 03:06:13;;;;;;;;;6.00;6.00;;;;;22.26;32.46;100001.63;5112499;27;53262;-69
2023/03/17 03:08:38;;;;;;;;;8.00;6.00;;;;;22.26;31.94;99998.94;5086416;27;57475;-70
2023/03/17 03:11:04;;;;;;;;;6.00;6.00;;;;;22.25;32.11;99998.09;5095401;27;63108;-71
2023/03/17 03:13:29;;;;;;;;;7.50;6.50;;;;;22.23;32.37;99991.22;5089885;27;46317;-70
2023/03/17 03:15:55;;;;;;;;;7.75;6.75;;;;;22.21;32.45;99977.19;5095133;27;45529;-71
2023/03/17 03:18:20;;;;;;;;;8.00;6.50;;;;;22.25;32.46;99983.91;5114960;27;45452;-71
2023/03/17 03:20:46;;;;;;;;;10.00;8.00;;;;;22.22;32.25;99977.03;5089657;27;45994;-71
2023/03/17 03:23:11;;;;;;;;;7.75;6.50;;;;;22.24;31.88;99979.56;5095145;27;47212;-71
2023/03/17 03:25:37;;;;;;;;;5.50;5.50;;;;;22.23;31.86;99986.72;5092135;27;45618;-70
2023/03/17 03:28:05;;;;;;;;;6.25;5.00;;;;;22.22;31.97;99985.03;5112493;27;45538;-71
2023/03/17 03:30:30;;;;;;;;;9.00;8.00;;;;;22.22;32.32;99992.19;5087905;27;45467;-69
2023/03/17 03:32:56;;;;;;;;;9.00;7.00;;;;;22.21;31.90;99990.50;5085414;27;45447;-71
2023/03/17 03:35:21;;;;;;;;;8.75;7.50;;;;;22.19;31.95;99980.81;5088035;27;45327;-70
2023/03/17 03:37:46;;;;;;;;;7.25;5.50;;;;;22.19;31.76;99982.66;5083212;27;64252;-71
2023/03/17 03:40:13;;;;;;;;;6.75;5.50;;;;;22.21;31.85;99985.19;5075132;27;45488;-70
2023/03/17 03:42:38;;;;;;;;;7.25;6.25;;;;;22.18;32.26;99983.59;5080232;27;47360;-71
2023/03/17 03:45:04;;;;;;;;;11.00;5.75;;;;;22.20;32.07;99989.66;5107635;27;61143;-71
2023/03/17 03:47:29;;;;;;;;;5.00;5.00;;;;;22.20;32.24;99997.63;5097363;27;45371;-72
2023/03/17 03:49:54;;;;;;;;;6.00;6.00;;;;;22.21;32.07;100009.16;5091166;27;68150;-72
2023/03/17 03:52:20;;;;;;;;;5.00;5.00;;;;;22.17;32.19;100009.44;5081559;27;67840;-72
2023/03/17 03:54:45;;;;;;;;;4.00;4.00;;;;;22.17;32.13;100011.25;5105947;27;71625;-72
2023/03/17 03:57:11;;;;;;;;;6.00;6.00;;;;;22.19;31.68;100011.97;5079485;27;45320;-72
2023/03/17 03:59:36;;;;;;;;;7.00;5.50;;;;;22.19;31.83;100026.13;5075981;27;45334;-72
2023/03/17 04:02:02;;;;;;;;;7.25;5.50;;;;;22.19;32.21;100023.47;5077023;27;46046;-72
2023/03/17 04:04:27;;;;;;;;;8.00;5.50;;;;;22.19;31.77;100022.63;5091688;27;45381;-72
2023/03/17 04:06:52;;;;;;;;;5.50;5.00;;;;;22.17;32.25;100019.25;5109813;27;61450;-71
2023/03/17 04:09:18;;;;;;;;;7.75;6.75;;;;;22.18;31.67;100023.59;5105032;27;73384;-72
2023/03/17 04:11:43;;;;;;;;;5.00;2.75;;;;;22.15;31.91;100018.50;5081954;27;73636;-71
2023/03/17 04:14:08;;;;;;;;;6.75;4.75;;;;;22.16;32.10;100022.88;5107346;27;62499;-69
2023/03/17 04:16:34;;;;;;;;;5.75;5.00;;;;;22.15;32.14;100015.84;5101974;27;63874;-70
2023/03/17 04:18:59;;;;;;;;;5.00;5.00;;;;;22.16;31.76;100017.56;5089176;27;52688;-69
2023/03/17 04:21:24;;;;;;;;;6.00;5.00;;;;;22.15;31.74;100021.19;5092014;27;74759;-70
2023/03/17 04:23:50;;;;;;;;;3.00;3.00;;;;;22.15;31.97;100027.38;5100432;27;59255;-69
2023/03/17 04:26:17;;;;;;;;;7.75;5.00;;;;;22.15;31.68;100018.50;5107185;27;65003;-69
2023/03/17 04:28:42;;;;;;;;;5.75;4.25;;;;;22.14;32.15;100020.34;5117065;27;45544;-69
2023/03/17 04:31:11;;;;;;;;;6.25;6.00;;;;;22.13;32.20;100010.69;5108861;27;46287;-70
2023/03/17 04:33:36;;;;;;;;;7.50;6.00;;;;;22.13;32.17;100016.00;5081706;27;45951;-69
2023/03/17 04:36:02;;;;;;;;;5.00;4.00;;;;;22.13;32.20;100018.69;5091739;27;45319;-70
2023/03/17 04:38:28;;;;;;;;;5.25;4.00;;;;;22.13;32.28;100016.00;5074926;27;45497;-69
2023/03/17 04:40:53;;;;;;;;;8.00;4.25;;;;;22.12;31.89;100008.97;5103064;27;75260;-69
2023/03/17 04:43:19;;;;;;;;;4.50;4.50;;;;;22.12;31.66;100010.81;5094078;27;68323;-69
2023/03/17 04:45:44;;;;;;;;;5.00;5.00;;;;;22.09;32.01;100003.91;5091390;27;45391;-70
2023/03/17 04:48:09;;;;;;;;;6.00;4.00;;;;;22.12;32.09;100001.00;5108062;27;45401;-69
2023/03/17 04:50:35;;;;;;;;;7.25;5.75;;;;;22.09;31.77;99998.59;5096534;27;65976;-70
2023/03/17 04:53:00;;;;;;;;;7.00;5.00;;;;;22.10;32.02;100005.63;5108761;27;59106;-69
2023/03/17 04:55:26;;;;;;;;;5.75;5.25;;;;;22.11;32.08;100003.78;5097684;27;45504;-69
2023/03/17 04:57:51;;;;;;;;;3.75;3.75;;;;;22.11;31.92;100003.78;5098152;27;45504;-69
2023/03/17 05:00:17;;;;;;;;;5.50;4.00;;;;;22.08;31.86;100004.91;5116358;27;63651;-69
2023/03/17 05:02:43;;;;;;;;;4.00;4.00;;;;;22.11;31.64;100017.09;5112654;27;45495;-69
2023/03/17 05:05:08;;;;;;;;;5.00;4.75;;;;;22.08;32.18;100014.69;5081905;27;45362;-69
2023/03/17 05:07:34;;;;;;;;;6.25;3.00;;;;;22.10;32.16;100015.44;5098337;27;45486;-69
2023/03/17 05:10:00;;;;;;;;;8.50;5.25;;;;;22.09;32.09;100016.41;5079910;27;46941;-72
2023/03/17 05:12:26;;;;;;;;;7.00;3.75;;;;;22.08;31.90;100007.56;5078239;27;45378;-71
2023/03/17 05:14:51;;;;;;;;;5.50;5.00;;;;;22.09;32.15;100011.91;5095438;27;45510;-72
2023/03/17 05:17:17;;;;;;;;;6.00;6.00;;;;;22.07;32.04;100011.19;5084312;27;52163;-72
2023/03/17 05:19:42;;;;;;;;;4.50;4.50;;;;;22.09;32.26;100021.72;5100526;27;45729;-72
2023/03/17 05:22:07;;;;;;;;;5.00;5.00;;;;;22.09;32.31;100019.91;5103764;27;45629;-71
2023/03/17 05:24:33;;;;;;;;;4.25;4.25;;;;;22.06;32.11;100014.84;5111822;27;57951;-69
2023/03/17 05:26:58;;;;;;;;;5.75;4.25;;;;;22.09;32.09;100019.06;5100829;27;59920;-69
2023/03/17 05:29:24;;;;;;;;;8.00;5.00;;;;;22.01;31.67;100011.75;5097033;27;45500;-72
2023/03/17 05:31:49;;;;;;;;;4.25;4.00;;;;;22.07;32.11;100021.03;5090086;27;64099;-71
2023/03/17 05:34:14;;;;;;;;;7.50;5.00;;;;;22.04;32.07;100007.97;5089207;27;69095;-71
2023/03/17 05:36:40;;;;;;;;;5.75;3.50;;;;;22.06;32.05;100016.66;5117545;27;45345;-71
2023/03/17 05:39:06;;;;;;;;;7.00;4.75;;;;;22.08;31.96;100012.03;5096674;27;47092;-72
2023/03/17 05:41:32;;;;;;;;;6.25;4.50;;;;;22.07;31.61;100013.03;5092283;27;45528;-72
2023/03/17 05:43:58;;;;;;;;;4.00;3.25;;;;;22.07;32.24;100018.34;5084594;27;45476;-72
2023/03/17 05:46:23;;;;;;;;;4.50;4.50;;;;;22.04;31.96;100006.13;5099336;27;45579;-72
2023/03/17 05:48:49;;;;;;;;;3.75;3.75;;;;;22.04;31.88;100005.28;5107184;27;75630;-72
2023/03/17 05:51:14;;;;;;;;;6.75;4.50;;;;;22.06;31.64;100009.53;5092648;27;62822;-72
2023/03/17 05:53:40;;;;;;;;;5.00;3.00;;;;;22.04;31.79;100005.28;5093682;27;45430;-72
2023/03/17 05:56:06;;;;;;;;;5.00;5.00;;;;;22.04;31.97;100006.13;5110195;27;45643;-72
2023/03/17 05:58:32;;;;;;;;;5.00;4.00;;;;;22.04;32.30;100002.63;5090353;27;47453;-72
2023/03/17 06:00:57;;;;;;;;;4.00;3.75;;;;;22.02;32.18;100013.41;5091098;27;45478;-72
2023/03/17 06:03:23;;;;;;;;;5.00;3.25;;;;;22.02;31.89;100024.06;5105667;27;57652;-72
2023/03/17 06:05:48;;;;;;;;;4.75;3.25;;;;;22.03;31.85;100016.91;5094395;27;48912;-72
2023/03/17 06:08:13;;;;;;;;;5.25;3.00;;;;;22.01;32.20;100011.75;5102715;27;47155;-72
2023/03/17 06:10:40;;;;;;;;;7.75;3.75;;;;;21.99;31.71;100006.53;5111688;27;45727;-72
2023/03/17 06:13:05;;;;;;;;;4.50;4.25;;;;;22.02;31.89;100015.25;5096918;27;45484;-71
2023/03/17 06:15:32;;;;;;;;;5.00;3.25;;;;;22.01;31.64;100009.09;5095237;27;46139;-71
2023/03/17 06:17:58;;;;;;;;;4.50;4.50;;;;;22.01;31.75;100011.75;5101385;27;46136;-72
2023/03/17 06:20:24;;;;;;;;;3.50;3.25;;;;;22.04;32.26;100019.44;5078329;27;45557;-74
2023/03/17 06:22:49;;;;;;;;;5.00;3.00;;;;;22.05;31.92;100025.66;5116073;27;45347;-74
2023/03/17 06:25:14;;;;;;;;;5.75;4.50;;;;;22.06;31.78;100014.84;5101499;27;45442;-74
2023/03/17 06:27:41;;;;;;;;;2.00;2.00;;;;;22.09;32.13;100027.91;5091054;27;46237;-76
2023/03/17 06:30:10;;;;;;;;;7.00;5.25;;;;;22.10;31.93;100029.59;5094732;27;45672;-73
2023/03/17 06:32:35;;;;;;;;;3.25;3.00;;;;;22.14;32.48;100035.50;5101287;27;45953;-73
2023/03/17 06:35:01;;;;;;;;;4.50;4.00;;;;;22.15;31.86;100032.72;5101279;27;45433;-73
2023/03/17 06:37:27;;;;;;;;;6.50;5.00;;;;;22.14;32.36;100024.84;5109835;27;45518;-75
2023/03/17 06:39:53;;;;;;;;;7.00;6.25;;;;;22.13;32.26;100032.00;5099498;27;46190;-74
2023/03/17 06:42:18;;;;;;;;;6.00;5.50;;;;;22.06;32.12;100025.53;5092362;27;62199;-73
2023/03/17 06:44:45;;;;;;;;;7.50;6.50;;;;;22.08;32.36;100022.69;5092528;27;74192;-73
2023/03/17 06:47:10;;;;;;;;;8.00;7.00;;;;;22.06;32.50;100017.53;5090780;27;49094;-74
2023/03/17 06:49:36;;;;;;;;;7.75;6.75;;;;;22.04;32.50;100014.13;5092337;27;45348;-72
2023/03/17 06:52:01;;;;;;;;;8.75;6.00;;;;;21.98;32.05;100017.34;5093076;27;67641;-72
2023/03/17 06:54:27;;;;;;;;;7.50;6.50;;;;;21.97;32.06;100021.81;5109535;27;45452;-72
2023/03/17 06:56:53;;;;;;;;;5.50;4.50;;;;;21.94;32.38;100037.22;5106988;27;45737;-72
2023/03/17 06:59:20;;;;;;;;;10.75;5.00;;;;;21.89;32.26;100034.94;5111989;27;45495;-78
2023/03/17 07:01:45;;;;;;;;;6.00;5.50;;;;;21.90;32.58;100039.31;5080765;27;45548;-73
2023/03/17 07:04:11;;;;;;;;;8.75;7.00;;;;;21.87;32.26;100041.38;5101303;27;45462;-77
2023/03/17 07:06:36;;;;;;;;;10.50;6.00;;;;;21.83;32.40;100035.47;5089983;27;45508;-72
2023/03/17 07:09:02;;;;;;;;;8.25;5.25;;;;;21.88;32.35;100043.91;5116584;27;54340;-78
2023/03/17 07:11:29;;;;;;;;;5.00;5.00;;;;;21.87;32.56;100034.25;5089552;27;45575;-72
2023/03/17 07:13:55;;;;;;;;;7.25;6.00;;;;;21.85;32.81;100028.22;5097775;27;45435;-81
2023/03/17 07:16:21;;;;;;;;;8.50;6.00;;;;;21.91;32.97;100029.50;5107254;27;45455;-72
2023/03/17 07:18:46;;;;;;;;;8.50;6.00;;;;;21.93;33.13;100025.72;5080092;27;45414;-72
2023/03/17 07:21:12;;;;;;;;;9.75;6.25;;;;;21.99;33.00;100029.66;5101011;27;45969;-75
2023/03/17 07:23:37;;;;;;;;;5.75;5.75;;;;;22.00;33.26;100032.19;5097031;27;45387;-77
2023/03/17 07:26:03;;;;;;;;;7.25;5.00;;;;;22.09;33.42;100048.38;5096270;27;59631;-73
2023/03/17 07:28:28;;;;;;;;;5.75;5.00;;;;;22.09;33.26;100045.72;5110875;27;45412;-73
2023/03/17 07:30:55;;;;;;;;;10.75;5.25;;;;;22.13;33.41;100048.00;5112238;27;45383;-72
2023/03/17 07:33:20;;;;;;;;;6.50;4.25;;;;;22.18;33.38;100060.91;5112952;27;45429;-73
2023/03/17 07:35:47;;;;;;;;;8.50;5.00;;;;;22.23;33.47;100056.03;5086849;27;74249;-71
2023/03/17 07:38:13;;;;;;;;;4.00;4.00;;;;;22.28;33.51;100056.50;5073867;27;45380;-75
2023/03/17 07:40:38;;;;;;;;;7.25;4.00;;;;;22.31;33.78;100058.03;5084521;27;45312;-81
2023/03/17 07:43:04;;;;;;;;;6.25;3.00;;;;;22.35;33.73;100062.13;5081845;27;45418;-74
2023/03/17 07:45:30;;;;;;;;;5.00;3.75;;;;;22.45;33.59;100055.03;5097166;27;67111;-77
2023/03/17 07:47:55;;;;;;;;;8.00;4.50;;;;;22.45;33.59;100035.50;5084493;27;45828;-77
2023/03/17 07:50:20;;;;;;;;;2.00;1.00;;;;;22.54;33.92;100045.34;5117134;27;57071;-74
2023/03/17 07:52:46;;;;;;;;;6.00;4.00;;;;;22.61;33.50;100053.66;5097030;27;72966;-77
2023/03/17 07:55:11;;;;;;;;;8.50;4.50;;;;;22.64;33.63;100056.06;5097590;27;70109;-82
2023/03/17 07:57:38;;;;;;;;;4.50;4.00;;;;;22.72;33.91;100058.91;5097376;27;45200;-84
2023/03/17 08:00:08;;;;;;;;;5.00;5.00;;;;;22.75;33.45;100058.59;5083228;27;45379;-77
2023/03/17 08:02:34;;;;;;;;;11.50;3.75;;;;;22.80;33.35;100069.72;5082359;27;45514;-72
2023/03/17 08:05:00;;;;;;;;;4.25;4.00;;;;;22.84;33.01;100062.28;5087430;27;46057;-72
2023/03/17 08:07:26;;;;;;;;;5.25;4.25;;;;;22.87;33.76;100062.00;5102548;27;45699;-79
2023/03/17 08:09:51;;;;;;;;;4.25;4.00;;;;;22.90;33.13;100067.91;5079485;27;45491;-78
2023/03/17 08:12:17;;;;;;;;;5.25;4.00;;;;;22.97;33.57;100080.72;5092605;27;62060;-81
2023/03/17 08:14:42;;;;;;;;;5.75;4.00;;;;;22.99;33.54;100073.41;5093054;27;46882;-77
2023/03/17 08:17:07;;;;;;;;;11.50;11.25;;;;;;;;5109548;27;45248;-83
2023/03/17 08:19:32;;;;;;;;;8.00;7.33;;;;;23.07;33.70;100071.78;5113473;27;45266;-71
2023/03/17 08:21:58;;;;;;;;;4.75;4.75;;;;;23.09;33.35;100074.31;5108477;27;59098;-75
2023/03/17 08:24:25;;;;;;;;;4.00;4.00;;;;;23.12;33.25;100058.88;5103415;27;45915;-81
2023/03/17 08:26:51;;;;;;;;;6.00;4.75;;;;;23.17;32.96;100063.75;5074585;27;45486;-77
2023/03/17 08:29:17;;;;;;;;;6.00;4.75;;;;;23.20;33.15;100068.84;5078881;27;45319;-76
2023/03/17 08:31:43;;;;;;;;;8.75;6.00;;;;;23.24;33.21;100059.56;5105578;27;45430;-76
2023/03/17 08:34:08;;;;;;;;;6.25;5.00;;;;;23.26;33.30;100062.94;5094875;27;45433;-75
2023/03/17 08:36:34;;;;;;;;;4.00;3.00;;;;;23.29;32.94;100062.66;5105453;27;45480;-74
2023/03/17 08:38:59;;;;;;;;;6.25;4.00;;;;;23.30;33.01;100051.00;5096102;27;45284;-74
2023/03/17 08:41:27;;;;;;;;;7.00;5.00;;;;;23.38;33.37;100077.00;5104320;27;45629;-73
2023/03/17 08:43:53;;;;;;;;;7.50;5.00;;;;;23.38;33.17;100065.47;5109332;27;47131;-78
2023/03/17 08:46:25;;;;;;;;;8.00;4.75;;;;;23.43;32.91;100058.72;5109741;27;45150;-75
2023/03/17 08:48:53;;;;;;;;;8.50;5.50;;;;;23.45;33.05;100058.59;5090743;27;45266;-75
2023/03/17 08:51:20;;;;;;;;;7.00;5.00;;;;;23.45;32.95;100042.56;5107004;27;45452;-86
2023/03/17 08:53:46;;;;;;;;;7.25;5.00;;;;;23.44;32.79;100025.69;5113458;27;45389;-76
2023/03/17 08:56:12;;;;;;;;;5.50;4.25;;;;;23.52;32.45;100033.00;5078802;27;45529;-80
2023/03/17 08:58:39;;;;;;;;;4.50;4.50;;;;;23.55;32.81;100034.53;5097465;27;45477;-76
2023/03/17 09:01:08;;;;;;;;;5.75;4.50;;;;;23.54;32.93;100047.03;5115829;27;45415;-78
2023/03/17 09:03:33;;;;;;;;;5.50;4.75;;;;;23.60;32.59;100048.28;5097542;27;45258;-82
2023/03/17 09:05:59;;;;;;;;;5.00;4.25;;;;;23.58;32.74;100042.25;5076907;27;45483;-84
2023/03/17 09:08:26;;;;;;;;;3.25;3.25;;;;;23.61;32.66;100047.31;5087973;27;45536;-81
2023/03/17 09:10:52;;;;;;;;;5.50;5.00;;;;;23.64;32.97;100044.38;5081599;27;45401;-83
2023/03/17 09:13:17;;;;;;;;;4.75;3.75;;;;;23.67;32.87;100050.28;5112162;27;45963;-87
2023/03/17 09:15:43;;;;;;;;;6.75;5.00;;;;;23.68;32.76;100041.25;5099303;27;45438;-86
2023/03/17 09:18:09;;;;;;;;;5.75;3.75;;;;;23.72;32.58;100035.63;5088694;27;45377;-84
2023/03/17 09:20:35;;;;;;;;;4.75;3.00;;;;;23.72;32.89;100035.63;5093430;27;45395;-75
2023/03/17 09:23:06;;;;;;;;;5.00;4.00;;;;;23.73;33.32;100029.28;5090428;27;45291;-85
2023/03/17 09:25:33;;;;;;;;;34.00;17.25;;;;;23.75;33.68;100030.00;5081147;27;45940;-76
2023/03/17 09:27:59;;;;;;;;;16.75;10.00;;;;;23.68;33.05;100027.91;5078067;27;45520;-76
2023/03/17 09:30:25;;;;;;;;;16.25;11.00;;;;;23.69;33.43;100026.94;5101688;27;45418;-79
2023/03/17 09:32:51;;;;;;;;;12.75;7.00;;;;;23.76;33.27;100021.84;5094399;27;45370;-78
2023/03/17 09:35:17;;;;;;;;;10.25;6.75;;;;;23.80;33.48;100030.44;5102994;27;45436;-75
2023/03/17 09:37:42;;;;;;;;;12.75;5.00;;;;;23.84;33.35;100035.34;5095271;27;45201;-78
2023/03/17 09:40:13;;;;;;;;;14.00;7.50;;;;;23.87;33.28;100032.41;5106022;27;45304;-72
2023/03/17 09:42:57;;;;;;;;;12.75;6.00;;;;;23.91;33.55;100034.78;5085685;27;47679;-74
2023/03/17 09:45:37;;;;;;;;;10.25;5.00;;;;;23.87;33.55;100035.06;5083511;27;45780;-75
2023/03/17 09:48:28;;;;;;;;;8.00;6.50;;;;;23.89;33.20;100032.25;5095518;27;45350;-75
2023/03/17 09:51:20;;;;;;;;;5.50;5.00;;;;;23.85;33.57;100026.34;5102670;27;45405;-76
2023/03/17 09:53:48;;;;;;;;;8.50;6.00;;;;;23.83;33.83;100012.31;5101320;27;70802;-73
2023/03/17 09:56:18;;;;;;;;;10.75;7.25;;;;;23.81;33.44;100019.59;5093868;27;45496;-74
2023/03/17 09:59:09;;;;;;;;;8.25;5.00;;;;;23.80;34.05;100020.59;5098292;27;45290;-75
2023/03/17 10:01:35;;;;;;;;;7.25;5.00;;;;;23.79;34.04;100008.19;5079807;27;46229;-74
2023/03/17 10:04:02;;;;;;;;;7.25;5.50;;;;;23.78;33.73;100009.19;5093386;27;46245;-71
2023/03/17 10:06:38;;;;;;;;;6.75;6.75;;;;;23.78;34.08;100011.88;5088204;27;46114;-72
2023/03/17 10:09:17;;;;;;;;;9.75;5.00;;;;;23.76;33.67;100012.97;5101915;27;45293;-73
2023/03/17 10:11:46;;;;;;;;;11.50;5.25;;;;;23.75;33.91;100025.50;5091901;27;45753;-77
2023/03/17 10:14:15;;;;;;;;;10.00;5.25;;;;;23.76;33.64;100027.19;5092453;27;46094;-74
2023/03/17 10:16:42;;;;;;;;;5.50;5.00;;;;;23.76;33.91;100035.22;5116122;27;45341;-74
2023/03/17 10:19:14;;;;;;;;;8.00;4.00;;;;;23.77;33.56;100034.22;5095460;27;45484;-73
2023/03/17 10:21:47;;;;;;;;;8.00;5.75;;;;;23.73;34.00;100029.28;5104370;27;45301;-73
2023/03/17 10:24:12;;;;;;;;;8.00;6.25;;;;;23.76;33.69;100035.22;5091250;27;45715;-73
2023/03/17 10:26:50;;;;;;;;;6.50;6.50;;;;;23.76;34.06;100039.69;5097081;27;71017;-76
2023/03/17 10:29:21;;;;;;;;;8.50;5.00;;;;;23.77;33.94;100038.72;5068206;27;45338;-72
2023/03/17 10:31:47;;;;;;;;;6.25;4.25;;;;;23.74;33.96;100041.66;5087918;27;45364;-72
2023/03/17 10:34:17;;;;;;;;;6.25;5.00;;;;;23.75;33.83;100049.53;5074537;27;47128;-72
2023/03/17 10:36:50;;;;;;;;;6.75;4.75;;;;;23.73;33.84;100043.50;5069419;27;45823;-75
2023/03/17 10:39:18;;;;;;;;;8.25;4.00;;;;;23.73;33.51;100038.16;5097217;27;45355;-77
2023/03/17 10:42:26;;;;;;;;;8.75;4.00;;;;;23.73;33.43;100038.16;5092444;27;45676;-75
2023/03/17 10:44:56;;;;;;;;;8.50;4.00;;;;;23.75;33.65;100049.53;5079074;27;45606;-75
2023/03/17 10:47:32;;;;;;;;;6.50;6.00;;;;;23.74;33.81;100037.16;5079854;27;45516;-74
2023/03/17 10:50:02;;;;;;;;;6.00;4.00;;;;;23.73;33.83;100019.47;5088934;27;45236;-74
2023/03/17 10:52:31;;;;;;;;;2.75;2.50;;;;;23.72;33.33;100030.28;5094753;27;45512;-76
2023/03/17 10:55:01;;;;;;;;;9.50;4.00;;;;;23.71;33.69;100029.47;5096022;27;45393;-76
2023/03/17 10:57:27;;;;;;;;;6.50;5.00;;;;;23.70;33.48;100023.25;5091710;27;45778;-74
2023/03/17 10:59:54;;;;;;;;;8.75;2.75;;;;;23.69;33.46;100020.72;5096486;27;67502;-72
2023/03/17 11:02:42;;;;;;;;;4.00;4.00;;;;;23.72;33.47;100016.94;5094960;27;45426;-73
2023/03/17 11:05:18;;;;;;;;;8.25;5.00;;;;;23.74;33.52;100030.97;5075154;27;46366;-72
2023/03/17 11:07:44;;;;;;;;;4.25;4.00;;;;;23.76;33.68;100032.53;5096110;27;45781;-73
2023/03/17 11:10:32;;;;;;;;;4.50;3.00;;;;;23.76;33.62;100023.66;5081976;27;45229;-77
2023/03/17 11:13:00;;;;;;;;;4.00;4.00;;;;;23.78;33.63;100032.38;5073692;27;45842;-75
2023/03/17 11:15:31;;;;;;;;;2.00;2.00;;;;;23.77;33.45;100042.22;5093131;27;45462;-72
2023/03/17 11:18:10;;;;;;;;;3.75;3.00;;;;;23.79;33.31;100044.75;5092950;27;45302;-71
2023/03/17 11:20:56;;;;;;;;;5.50;3.00;;;;;23.80;33.37;100025.94;5078648;27;45314;-75
2023/03/17 11:23:50;;;;;;;;;5.25;4.00;;;;;23.84;33.83;100027.34;5072591;27;45908;-73
2023/03/17 11:26:30;;;;;;;;;5.00;3.00;;;;;23.83;33.35;100027.47;5093086;27;45562;-72